sensor_id;sensor_type;location;lat;lon;timestamp;P1;durP1;ratioP1;P2;durP2;ratioP2
9844;SDS011;4961;50.782;6.080;2022-08-01T00:01:31;2.20;;;0.60;;
9844;SDS011;4961;50.782;6.080;2022-08-01T00:03:59;0.90;;;0.50;;
9844;SDS011;4961;50.782;6.080;2022-08-01T00:06:27;2.87;;;0.60;;
9844;SDS011;4961;50.782;6.080;2022-08-01T00:08:56;3.00;;;0.60;;
9844;SDS011;4961;50.782;6.080;2022-08-01T00:11:24;1.07;;;0.60;;
9844;SDS011;4961;50.782;6.080;2022-08-01T00:13:53;0.70;;;0.50;;
9844;SDS011;4961;50.782;6.080;2022-08-01T00:16:21;0.73;;;0.73;;
9844;SDS011;4961;50.782;6.080;2022-08-01T00:18:51;1.90;;;0.77;;
9844;SDS011;4961;50.782;6.080;2022-08-01T00:21:20;2.00;;;0.50;;
9844;SDS011;4961;50.782;6.080;2022-08-01T00:23:48;0.90;;;0.60;;
9844;SDS011;4961;50.782;6.080;2022-08-01T00:26:16;2.10;;;0.60;;
9844;SDS011;4961;50.782;6.080;2022-08-01T00:28:45;3.70;;;0.70;;
9844;SDS011;4961;50.782;6.080;2022-08-01T00:31:13;1.53;;;0.80;;
9844;SDS011;4961;50.782;6.080;2022-08-01T00:33:41;3.60;;;1.00;;
9844;SDS011;4961;50.782;6.080;2022-08-01T00:36:11;2.53;;;0.90;;
9844;SDS011;4961;50.782;6.080;2022-08-01T00:38:39;2.23;;;0.70;;
9844;SDS011;4961;50.782;6.080;2022-08-01T00:41:07;2.17;;;0.70;;
9844;SDS011;4961;50.782;6.080;2022-08-01T00:43:36;1.10;;;1.00;;
9844;SDS011;4961;50.782;6.080;2022-08-01T00:46:04;0.93;;;0.70;;
9844;SDS011;4961;50.782;6.080;2022-08-01T00:48:32;1.40;;;0.70;;
9844;SDS011;4961;50.782;6.080;2022-08-01T00:51:00;2.50;;;0.70;;
9844;SDS011;4961;50.782;6.080;2022-08-01T00:53:31;0.80;;;0.67;;
9844;SDS011;4961;50.782;6.080;2022-08-01T00:56:17;2.30;;;0.87;;
9844;SDS011;4961;50.782;6.080;2022-08-01T00:58:46;1.27;;;0.70;;
9844;SDS011;4961;50.782;6.080;2022-08-01T01:01:15;1.63;;;0.83;;
9844;SDS011;4961;50.782;6.080;2022-08-01T01:03:44;1.00;;;0.80;;
9844;SDS011;4961;50.782;6.080;2022-08-01T01:06:36;0.70;;;0.60;;
9844;SDS011;4961;50.782;6.080;2022-08-01T01:09:15;0.80;;;0.77;;
9844;SDS011;4961;50.782;6.080;2022-08-01T01:11:57;0.90;;;0.70;;
9844;SDS011;4961;50.782;6.080;2022-08-01T01:14:31;1.57;;;0.70;;
9844;SDS011;4961;50.782;6.080;2022-08-01T01:17:05;0.70;;;0.70;;
9844;SDS011;4961;50.782;6.080;2022-08-01T01:19:35;0.80;;;0.63;;
9844;SDS011;4961;50.782;6.080;2022-08-01T01:28:08;0.67;;;0.67;;
9844;SDS011;4961;50.782;6.080;2022-08-01T01:30:45;1.43;;;0.60;;
9844;SDS011;4961;50.782;6.080;2022-08-01T01:33:16;0.97;;;0.80;;
9844;SDS011;4961;50.782;6.080;2022-08-01T01:35:47;0.67;;;0.53;;
9844;SDS011;4961;50.782;6.080;2022-08-01T01:38:20;1.73;;;0.70;;
9844;SDS011;4961;50.782;6.080;2022-08-01T01:40:50;3.70;;;0.70;;
9844;SDS011;4961;50.782;6.080;2022-08-01T01:43:20;1.77;;;0.60;;
9844;SDS011;4961;50.782;6.080;2022-08-01T01:46:00;0.60;;;0.60;;
9844;SDS011;4961;50.782;6.080;2022-08-01T01:48:29;1.23;;;0.70;;
9844;SDS011;4961;50.782;6.080;2022-08-01T01:51:00;1.33;;;0.60;;
9844;SDS011;4961;50.782;6.080;2022-08-01T01:53:30;1.77;;;0.60;;
9844;SDS011;4961;50.782;6.080;2022-08-01T01:56:02;0.70;;;0.70;;
9844;SDS011;4961;50.782;6.080;2022-08-01T01:58:31;0.90;;;0.80;;
9844;SDS011;4961;50.782;6.080;2022-08-01T02:01:02;1.83;;;0.70;;
9844;SDS011;4961;50.782;6.080;2022-08-01T02:03:40;1.43;;;0.73;;
9844;SDS011;4961;50.782;6.080;2022-08-01T02:06:11;1.20;;;1.00;;
9844;SDS011;4961;50.782;6.080;2022-08-01T02:08:41;0.70;;;0.70;;
9844;SDS011;4961;50.782;6.080;2022-08-01T02:11:12;0.77;;;0.77;;
9844;SDS011;4961;50.782;6.080;2022-08-01T02:13:49;6.20;;;0.90;;
9844;SDS011;4961;50.782;6.080;2022-08-01T02:16:23;2.43;;;0.93;;
9844;SDS011;4961;50.782;6.080;2022-08-01T02:18:54;2.50;;;0.70;;
9844;SDS011;4961;50.782;6.080;2022-08-01T02:21:24;0.63;;;0.63;;
9844;SDS011;4961;50.782;6.080;2022-08-01T02:23:58;1.30;;;0.73;;
9844;SDS011;4961;50.782;6.080;2022-08-01T02:26:31;1.37;;;0.90;;
9844;SDS011;4961;50.782;6.080;2022-08-01T02:29:02;1.50;;;0.70;;
9844;SDS011;4961;50.782;6.080;2022-08-01T02:31:37;1.03;;;0.60;;
9844;SDS011;4961;50.782;6.080;2022-08-01T02:34:11;0.70;;;0.70;;
9844;SDS011;4961;50.782;6.080;2022-08-01T02:36:44;1.17;;;0.70;;
9844;SDS011;4961;50.782;6.080;2022-08-01T02:39:14;2.70;;;0.80;;
9844;SDS011;4961;50.782;6.080;2022-08-01T02:41:46;0.60;;;0.60;;
9844;SDS011;4961;50.782;6.080;2022-08-01T02:44:19;0.70;;;0.70;;
9844;SDS011;4961;50.782;6.080;2022-08-01T02:46:54;1.77;;;0.70;;
9844;SDS011;4961;50.782;6.080;2022-08-01T02:49:29;0.90;;;0.70;;
9844;SDS011;4961;50.782;6.080;2022-08-01T02:52:01;1.33;;;0.70;;
9844;SDS011;4961;50.782;6.080;2022-08-01T02:54:32;1.00;;;0.80;;
9844;SDS011;4961;50.782;6.080;2022-08-01T02:57:02;1.40;;;0.90;;
9844;SDS011;4961;50.782;6.080;2022-08-01T02:59:35;0.90;;;0.90;;
9844;SDS011;4961;50.782;6.080;2022-08-01T03:02:08;1.30;;;0.80;;
9844;SDS011;4961;50.782;6.080;2022-08-01T03:04:38;0.83;;;0.70;;
9844;SDS011;4961;50.782;6.080;2022-08-01T03:07:09;1.30;;;0.70;;
9844;SDS011;4961;50.782;6.080;2022-08-01T03:09:39;1.23;;;0.80;;
9844;SDS011;4961;50.782;6.080;2022-08-01T03:12:10;0.87;;;0.73;;
9844;SDS011;4961;50.782;6.080;2022-08-01T03:14:41;1.20;;;0.80;;
9844;SDS011;4961;50.782;6.080;2022-08-01T03:17:14;1.33;;;0.87;;
9844;SDS011;4961;50.782;6.080;2022-08-01T03:19:44;1.00;;;0.90;;
9844;SDS011;4961;50.782;6.080;2022-08-01T03:22:14;1.53;;;0.93;;
9844;SDS011;4961;50.782;6.080;2022-08-01T03:24:44;2.13;;;0.80;;
9844;SDS011;4961;50.782;6.080;2022-08-01T03:27:16;1.00;;;0.90;;
9844;SDS011;4961;50.782;6.080;2022-08-01T03:29:46;1.27;;;1.03;;
9844;SDS011;4961;50.782;6.080;2022-08-01T03:32:17;1.93;;;1.30;;
9844;SDS011;4961;50.782;6.080;2022-08-01T03:34:46;2.03;;;1.00;;
9844;SDS011;4961;50.782;6.080;2022-08-01T03:37:17;3.93;;;1.00;;
9844;SDS011;4961;50.782;6.080;2022-08-01T03:39:54;3.17;;;1.00;;
9844;SDS011;4961;50.782;6.080;2022-08-01T03:42:31;1.40;;;1.00;;
9844;SDS011;4961;50.782;6.080;2022-08-01T03:45:04;1.40;;;1.00;;
9844;SDS011;4961;50.782;6.080;2022-08-01T03:47:41;2.93;;;1.30;;
9844;SDS011;4961;50.782;6.080;2022-08-01T03:50:13;1.60;;;1.00;;
9844;SDS011;4961;50.782;6.080;2022-08-01T03:52:43;0.80;;;0.80;;
9844;SDS011;4961;50.782;6.080;2022-08-01T03:55:13;3.43;;;1.67;;
9844;SDS011;4961;50.782;6.080;2022-08-01T03:57:44;2.00;;;1.40;;
9844;SDS011;4961;50.782;6.080;2022-08-01T04:00:14;1.70;;;1.10;;
9844;SDS011;4961;50.782;6.080;2022-08-01T04:02:46;3.37;;;1.10;;
9844;SDS011;4961;50.782;6.080;2022-08-01T04:05:16;5.37;;;1.00;;
9844;SDS011;4961;50.782;6.080;2022-08-01T04:07:45;2.20;;;1.00;;
9844;SDS011;4961;50.782;6.080;2022-08-01T04:10:16;4.83;;;1.30;;
9844;SDS011;4961;50.782;6.080;2022-08-01T04:12:44;1.07;;;0.97;;
9844;SDS011;4961;50.782;6.080;2022-08-01T04:15:13;2.33;;;1.40;;
9844;SDS011;4961;50.782;6.080;2022-08-01T04:17:41;2.77;;;1.30;;
9844;SDS011;4961;50.782;6.080;2022-08-01T04:20:11;1.83;;;1.10;;
9844;SDS011;4961;50.782;6.080;2022-08-01T04:22:39;2.97;;;1.60;;
9844;SDS011;4961;50.782;6.080;2022-08-01T04:25:09;2.80;;;1.10;;
9844;SDS011;4961;50.782;6.080;2022-08-01T04:27:42;1.50;;;1.40;;
9844;SDS011;4961;50.782;6.080;2022-08-01T04:30:17;1.60;;;1.23;;
9844;SDS011;4961;50.782;6.080;2022-08-01T04:32:49;3.33;;;1.30;;
9844;SDS011;4961;50.782;6.080;2022-08-01T04:35:22;1.97;;;1.53;;
9844;SDS011;4961;50.782;6.080;2022-08-01T04:38:14;3.17;;;1.20;;
9844;SDS011;4961;50.782;6.080;2022-08-01T04:40:49;2.37;;;1.33;;
9844;SDS011;4961;50.782;6.080;2022-08-01T04:43:19;3.13;;;1.40;;
9844;SDS011;4961;50.782;6.080;2022-08-01T04:45:48;2.30;;;1.50;;
9844;SDS011;4961;50.782;6.080;2022-08-01T04:48:17;2.80;;;1.60;;
9844;SDS011;4961;50.782;6.080;2022-08-01T04:50:49;2.07;;;1.60;;
9844;SDS011;4961;50.782;6.080;2022-08-01T04:53:18;3.10;;;1.70;;
9844;SDS011;4961;50.782;6.080;2022-08-01T04:55:48;3.60;;;1.80;;
9844;SDS011;4961;50.782;6.080;2022-08-01T04:58:16;1.47;;;1.30;;
9844;SDS011;4961;50.782;6.080;2022-08-01T05:00:45;2.77;;;1.80;;
9844;SDS011;4961;50.782;6.080;2022-08-01T05:03:13;2.43;;;1.57;;
9844;SDS011;4961;50.782;6.080;2022-08-01T05:05:42;2.20;;;1.50;;
9844;SDS011;4961;50.782;6.080;2022-08-01T05:08:11;2.40;;;1.83;;
9844;SDS011;4961;50.782;6.080;2022-08-01T05:10:39;2.83;;;2.53;;
9844;SDS011;4961;50.782;6.080;2022-08-01T05:13:08;3.73;;;1.57;;
9844;SDS011;4961;50.782;6.080;2022-08-01T05:15:37;2.50;;;1.60;;
9844;SDS011;4961;50.782;6.080;2022-08-01T05:18:05;5.57;;;2.30;;
9844;SDS011;4961;50.782;6.080;2022-08-01T05:20:34;1.90;;;1.80;;
9844;SDS011;4961;50.782;6.080;2022-08-01T05:23:03;2.00;;;1.80;;
9844;SDS011;4961;50.782;6.080;2022-08-01T05:25:37;3.27;;;2.30;;
9844;SDS011;4961;50.782;6.080;2022-08-01T05:28:23;3.27;;;1.90;;
9844;SDS011;4961;50.782;6.080;2022-08-01T05:30:51;4.30;;;3.10;;
9844;SDS011;4961;50.782;6.080;2022-08-01T05:33:21;3.17;;;2.13;;
9844;SDS011;4961;50.782;6.080;2022-08-01T05:35:49;2.70;;;2.30;;
9844;SDS011;4961;50.782;6.080;2022-08-01T05:38:18;2.63;;;2.43;;
9844;SDS011;4961;50.782;6.080;2022-08-01T05:40:48;4.67;;;2.07;;
9844;SDS011;4961;50.782;6.080;2022-08-01T05:43:16;4.77;;;3.20;;
9844;SDS011;4961;50.782;6.080;2022-08-01T05:45:44;4.10;;;2.90;;
9844;SDS011;4961;50.782;6.080;2022-08-01T05:48:13;6.20;;;4.00;;
9844;SDS011;4961;50.782;6.080;2022-08-01T05:50:41;3.50;;;2.77;;
9844;SDS011;4961;50.782;6.080;2022-08-01T05:53:10;2.43;;;2.23;;
9844;SDS011;4961;50.782;6.080;2022-08-01T05:55:38;5.00;;;2.73;;
9844;SDS011;4961;50.782;6.080;2022-08-01T05:58:08;3.20;;;2.90;;
9844;SDS011;4961;50.782;6.080;2022-08-01T06:00:37;4.90;;;3.47;;
9844;SDS011;4961;50.782;6.080;2022-08-01T06:03:06;3.17;;;2.97;;
9844;SDS011;4961;50.782;6.080;2022-08-01T06:05:35;8.17;;;3.30;;
9844;SDS011;4961;50.782;6.080;2022-08-01T06:08:04;5.93;;;3.47;;
9844;SDS011;4961;50.782;6.080;2022-08-01T06:10:32;6.93;;;3.73;;
9844;SDS011;4961;50.782;6.080;2022-08-01T06:13:00;6.03;;;3.60;;
9844;SDS011;4961;50.782;6.080;2022-08-01T06:15:31;5.93;;;3.40;;
9844;SDS011;4961;50.782;6.080;2022-08-01T06:17:59;3.67;;;3.30;;
9844;SDS011;4961;50.782;6.080;2022-08-01T06:20:28;3.70;;;2.77;;
9844;SDS011;4961;50.782;6.080;2022-08-01T06:22:56;6.23;;;3.90;;
9844;SDS011;4961;50.782;6.080;2022-08-01T06:25:26;6.13;;;3.80;;
9844;SDS011;4961;50.782;6.080;2022-08-01T06:27:54;4.60;;;4.10;;
9844;SDS011;4961;50.782;6.080;2022-08-01T06:30:23;6.03;;;3.77;;
9844;SDS011;4961;50.782;6.080;2022-08-01T06:32:53;6.30;;;3.87;;
9844;SDS011;4961;50.782;6.080;2022-08-01T06:35:22;7.50;;;4.17;;
9844;SDS011;4961;50.782;6.080;2022-08-01T06:37:50;4.20;;;3.77;;
9844;SDS011;4961;50.782;6.080;2022-08-01T06:40:18;5.47;;;4.23;;
9844;SDS011;4961;50.782;6.080;2022-08-01T06:42:47;6.83;;;3.90;;
9844;SDS011;4961;50.782;6.080;2022-08-01T06:45:15;6.03;;;3.50;;
9844;SDS011;4961;50.782;6.080;2022-08-01T06:47:44;4.30;;;3.90;;
9844;SDS011;4961;50.782;6.080;2022-08-01T06:50:17;5.23;;;3.77;;
9844;SDS011;4961;50.782;6.080;2022-08-01T06:52:46;4.37;;;3.97;;
9844;SDS011;4961;50.782;6.080;2022-08-01T06:55:14;7.20;;;4.03;;
9844;SDS011;4961;50.782;6.080;2022-08-01T06:57:46;7.60;;;4.70;;
9844;SDS011;4961;50.782;6.080;2022-08-01T07:00:15;5.47;;;4.27;;
9844;SDS011;4961;50.782;6.080;2022-08-01T07:02:45;7.77;;;4.13;;
9844;SDS011;4961;50.782;6.080;2022-08-01T07:05:13;5.83;;;3.90;;
9844;SDS011;4961;50.782;6.080;2022-08-01T07:07:42;5.27;;;4.67;;
9844;SDS011;4961;50.782;6.080;2022-08-01T07:10:11;5.33;;;4.10;;
9844;SDS011;4961;50.782;6.080;2022-08-01T07:12:40;5.00;;;4.57;;
9844;SDS011;4961;50.782;6.080;2022-08-01T07:15:09;5.70;;;4.47;;
9844;SDS011;4961;50.782;6.080;2022-08-01T07:17:38;6.93;;;4.70;;
9844;SDS011;4961;50.782;6.080;2022-08-01T07:20:07;5.47;;;4.50;;
9844;SDS011;4961;50.782;6.080;2022-08-01T07:22:39;9.03;;;4.97;;
9844;SDS011;4961;50.782;6.080;2022-08-01T07:25:09;6.07;;;4.80;;
9844;SDS011;4961;50.782;6.080;2022-08-01T07:27:40;4.60;;;4.10;;
9844;SDS011;4961;50.782;6.080;2022-08-01T07:30:08;6.17;;;4.63;;
9844;SDS011;4961;50.782;6.080;2022-08-01T07:32:37;6.13;;;4.53;;
9844;SDS011;4961;50.782;6.080;2022-08-01T07:35:06;7.13;;;5.57;;
9844;SDS011;4961;50.782;6.080;2022-08-01T07:37:34;7.37;;;5.40;;
9844;SDS011;4961;50.782;6.080;2022-08-01T07:40:17;9.47;;;5.53;;
9844;SDS011;4961;50.782;6.080;2022-08-01T07:42:46;10.30;;;6.03;;
9844;SDS011;4961;50.782;6.080;2022-08-01T07:45:15;8.47;;;6.30;;
9844;SDS011;4961;50.782;6.080;2022-08-01T07:47:43;7.37;;;5.63;;
9844;SDS011;4961;50.782;6.080;2022-08-01T07:50:13;8.63;;;6.40;;
9844;SDS011;4961;50.782;6.080;2022-08-01T07:52:41;9.17;;;6.57;;
9844;SDS011;4961;50.782;6.080;2022-08-01T07:55:10;7.10;;;6.40;;
9844;SDS011;4961;50.782;6.080;2022-08-01T07:57:43;7.30;;;6.50;;
9844;SDS011;4961;50.782;6.080;2022-08-01T08:00:12;6.43;;;5.70;;
9844;SDS011;4961;50.782;6.080;2022-08-01T08:02:41;9.67;;;5.87;;
9844;SDS011;4961;50.782;6.080;2022-08-01T08:05:10;7.47;;;6.77;;
9844;SDS011;4961;50.782;6.080;2022-08-01T08:07:39;6.67;;;5.90;;
9844;SDS011;4961;50.782;6.080;2022-08-01T08:10:07;6.43;;;5.67;;
9844;SDS011;4961;50.782;6.080;2022-08-01T08:12:36;9.10;;;6.53;;
9844;SDS011;4961;50.782;6.080;2022-08-01T08:15:07;7.63;;;6.10;;
9844;SDS011;4961;50.782;6.080;2022-08-01T08:17:36;10.67;;;6.83;;
9844;SDS011;4961;50.782;6.080;2022-08-01T08:20:05;8.10;;;7.30;;
9844;SDS011;4961;50.782;6.080;2022-08-01T08:22:35;8.10;;;6.83;;
9844;SDS011;4961;50.782;6.080;2022-08-01T08:25:04;7.60;;;6.33;;
9844;SDS011;4961;50.782;6.080;2022-08-01T08:27:34;7.27;;;6.57;;
9844;SDS011;4961;50.782;6.080;2022-08-01T08:30:04;10.73;;;6.77;;
9844;SDS011;4961;50.782;6.080;2022-08-01T08:32:36;9.27;;;5.43;;
9844;SDS011;4961;50.782;6.080;2022-08-01T08:35:05;8.73;;;6.10;;
9844;SDS011;4961;50.782;6.080;2022-08-01T08:37:38;8.40;;;5.07;;
9844;SDS011;4961;50.782;6.080;2022-08-01T08:40:14;5.50;;;4.97;;
9844;SDS011;4961;50.782;6.080;2022-08-01T08:42:43;6.23;;;5.30;;
9844;SDS011;4961;50.782;6.080;2022-08-01T08:45:13;5.73;;;4.40;;
9844;SDS011;4961;50.782;6.080;2022-08-01T08:47:43;6.80;;;5.30;;
9844;SDS011;4961;50.782;6.080;2022-08-01T08:50:13;5.67;;;4.20;;
9844;SDS011;4961;50.782;6.080;2022-08-01T08:52:42;8.67;;;4.80;;
9844;SDS011;4961;50.782;6.080;2022-08-01T08:55:12;5.10;;;4.70;;
9844;SDS011;4961;50.782;6.080;2022-08-01T08:57:42;5.93;;;4.03;;
9844;SDS011;4961;50.782;6.080;2022-08-01T09:00:12;5.60;;;5.10;;
9844;SDS011;4961;50.782;6.080;2022-08-01T09:02:44;6.43;;;4.97;;
9844;SDS011;4961;50.782;6.080;2022-08-01T09:05:15;5.13;;;4.73;;
9844;SDS011;4961;50.782;6.080;2022-08-01T09:07:45;6.00;;;4.67;;
9844;SDS011;4961;50.782;6.080;2022-08-01T09:10:13;4.40;;;4.00;;
9844;SDS011;4961;50.782;6.080;2022-08-01T09:15:37;4.20;;;3.80;;
9844;SDS011;4961;50.782;6.080;2022-08-01T09:18:08;10.77;;;6.63;;
9844;SDS011;4961;50.782;6.080;2022-08-01T09:20:36;8.83;;;6.90;;
9844;SDS011;4961;50.782;6.080;2022-08-01T09:23:05;8.80;;;6.97;;
9844;SDS011;4961;50.782;6.080;2022-08-01T09:28:26;7.40;;;5.93;;
9844;SDS011;4961;50.782;6.080;2022-08-01T09:30:56;6.77;;;6.00;;
9844;SDS011;4961;50.782;6.080;2022-08-01T09:33:26;9.37;;;7.10;;
9844;SDS011;4961;50.782;6.080;2022-08-01T09:36:25;8.00;;;7.20;;
9844;SDS011;4961;50.782;6.080;2022-08-01T09:38:56;8.33;;;7.53;;
9844;SDS011;4961;50.782;6.080;2022-08-01T09:41:40;11.73;;;8.53;;
9844;SDS011;4961;50.782;6.080;2022-08-01T09:44:08;9.60;;;8.60;;
9844;SDS011;4961;50.782;6.080;2022-08-01T09:46:43;9.10;;;8.00;;
9844;SDS011;4961;50.782;6.080;2022-08-01T09:49:33;10.13;;;7.93;;
9844;SDS011;4961;50.782;6.080;2022-08-01T09:52:17;10.57;;;7.37;;
9844;SDS011;4961;50.782;6.080;2022-08-01T09:54:52;9.73;;;7.57;;
9844;SDS011;4961;50.782;6.080;2022-08-01T09:57:22;10.03;;;7.53;;
9844;SDS011;4961;50.782;6.080;2022-08-01T09:59:52;7.60;;;6.80;;
9844;SDS011;4961;50.782;6.080;2022-08-01T10:02:28;7.40;;;6.17;;
9844;SDS011;4961;50.782;6.080;2022-08-01T10:05:01;5.93;;;4.97;;
9844;SDS011;4961;50.782;6.080;2022-08-01T10:07:34;6.47;;;5.33;;
9844;SDS011;4961;50.782;6.080;2022-08-01T10:10:09;6.00;;;5.47;;
9844;SDS011;4961;50.782;6.080;2022-08-01T10:12:40;5.03;;;4.60;;
9844;SDS011;4961;50.782;6.080;2022-08-01T10:15:11;4.60;;;4.20;;
9844;SDS011;4961;50.782;6.080;2022-08-01T10:17:45;5.17;;;4.83;;
9844;SDS011;4961;50.782;6.080;2022-08-01T10:20:22;5.30;;;4.70;;
9844;SDS011;4961;50.782;6.080;2022-08-01T10:23:00;4.70;;;4.40;;
9844;SDS011;4961;50.782;6.080;2022-08-01T10:25:34;4.03;;;3.73;;
9844;SDS011;4961;50.782;6.080;2022-08-01T10:28:10;4.33;;;3.40;;
9844;SDS011;4961;50.782;6.080;2022-08-01T10:30:49;3.90;;;3.60;;
9844;SDS011;4961;50.782;6.080;2022-08-01T10:33:20;4.67;;;4.27;;
9844;SDS011;4961;50.782;6.080;2022-08-01T10:36:11;7.47;;;5.97;;
9844;SDS011;4961;50.782;6.080;2022-08-01T10:38:42;5.80;;;5.30;;
9844;SDS011;4961;50.782;6.080;2022-08-01T10:41:11;4.97;;;4.43;;
9844;SDS011;4961;50.782;6.080;2022-08-01T10:43:42;5.13;;;4.67;;
9844;SDS011;4961;50.782;6.080;2022-08-01T10:46:12;5.50;;;4.87;;
9844;SDS011;4961;50.782;6.080;2022-08-01T10:48:43;4.23;;;3.70;;
9844;SDS011;4961;50.782;6.080;2022-08-01T10:51:19;3.73;;;3.43;;
9844;SDS011;4961;50.782;6.080;2022-08-01T10:54:08;4.20;;;3.80;;
9844;SDS011;4961;50.782;6.080;2022-08-01T10:56:38;7.97;;;4.57;;
9844;SDS011;4961;50.782;6.080;2022-08-01T10:59:10;4.73;;;4.33;;
9844;SDS011;4961;50.782;6.080;2022-08-01T11:02:03;6.93;;;5.93;;
9844;SDS011;4961;50.782;6.080;2022-08-01T11:04:33;6.67;;;6.07;;
9844;SDS011;4961;50.782;6.080;2022-08-01T11:07:13;5.13;;;4.73;;
9844;SDS011;4961;50.782;6.080;2022-08-01T11:09:47;5.60;;;5.00;;
9844;SDS011;4961;50.782;6.080;2022-08-01T11:12:38;11.73;;;4.27;;
9844;SDS011;4961;50.782;6.080;2022-08-01T11:15:17;3.90;;;3.57;;
9844;SDS011;4961;50.782;6.080;2022-08-01T11:17:56;3.63;;;3.33;;
9844;SDS011;4961;50.782;6.080;2022-08-01T11:20:31;3.53;;;3.23;;
9844;SDS011;4961;50.782;6.080;2022-08-01T11:23:18;3.27;;;3.07;;
9844;SDS011;4961;50.782;6.080;2022-08-01T11:31:48;3.03;;;2.77;;
9844;SDS011;4961;50.782;6.080;2022-08-01T11:34:18;1.83;;;1.73;;
9844;SDS011;4961;50.782;6.080;2022-08-01T11:36:47;4.23;;;1.90;;
9844;SDS011;4961;50.782;6.080;2022-08-01T11:39:26;2.10;;;1.90;;
9844;SDS011;4961;50.782;6.080;2022-08-01T11:41:55;2.53;;;2.43;;
9844;SDS011;4961;50.782;6.080;2022-08-01T11:44:49;2.80;;;2.60;;
9844;SDS011;4961;50.782;6.080;2022-08-01T11:47:26;2.67;;;2.47;;
9844;SDS011;4961;50.782;6.080;2022-08-01T11:50:34;6.67;;;2.60;;
9844;SDS011;4961;50.782;6.080;2022-08-01T11:53:07;2.70;;;2.50;;
9844;SDS011;4961;50.782;6.080;2022-08-01T11:55:38;3.27;;;2.97;;
9844;SDS011;4961;50.782;6.080;2022-08-01T11:58:20;2.30;;;2.17;;
9844;SDS011;4961;50.782;6.080;2022-08-01T12:00:57;3.23;;;2.13;;
9844;SDS011;4961;50.782;6.080;2022-08-01T12:03:26;2.10;;;1.93;;
9844;SDS011;4961;50.782;6.080;2022-08-01T12:05:59;2.27;;;2.07;;
9844;SDS011;4961;50.782;6.080;2022-08-01T12:08:29;2.40;;;2.20;;
9844;SDS011;4961;50.782;6.080;2022-08-01T12:11:02;2.23;;;2.13;;
9844;SDS011;4961;50.782;6.080;2022-08-01T12:13:38;2.47;;;2.37;;
9844;SDS011;4961;50.782;6.080;2022-08-01T12:16:09;2.77;;;2.50;;
9844;SDS011;4961;50.782;6.080;2022-08-01T12:18:38;2.67;;;2.50;;
9844;SDS011;4961;50.782;6.080;2022-08-01T12:21:08;4.77;;;2.40;;
9844;SDS011;4961;50.782;6.080;2022-08-01T12:23:36;3.00;;;2.70;;
9844;SDS011;4961;50.782;6.080;2022-08-01T12:26:06;2.80;;;2.40;;
9844;SDS011;4961;50.782;6.080;2022-08-01T12:28:54;2.73;;;2.53;;
9844;SDS011;4961;50.782;6.080;2022-08-01T12:31:30;3.53;;;2.20;;
9844;SDS011;4961;50.782;6.080;2022-08-01T12:36:56;1.87;;;1.60;;
9844;SDS011;4961;50.782;6.080;2022-08-01T12:39:29;2.10;;;1.77;;
9844;SDS011;4961;50.782;6.080;2022-08-01T12:42:00;1.60;;;1.50;;
9844;SDS011;4961;50.782;6.080;2022-08-01T12:44:33;2.83;;;1.80;;
9844;SDS011;4961;50.782;6.080;2022-08-01T12:47:02;2.10;;;1.67;;
9844;SDS011;4961;50.782;6.080;2022-08-01T12:49:33;2.07;;;1.90;;
9844;SDS011;4961;50.782;6.080;2022-08-01T12:52:04;2.13;;;1.97;;
9844;SDS011;4961;50.782;6.080;2022-08-01T12:57:36;1.70;;;1.60;;
9844;SDS011;4961;50.782;6.080;2022-08-01T13:00:17;1.83;;;1.70;;
9844;SDS011;4961;50.782;6.080;2022-08-01T13:02:49;1.90;;;1.80;;
9844;SDS011;4961;50.782;6.080;2022-08-01T13:05:27;1.80;;;1.70;;
9844;SDS011;4961;50.782;6.080;2022-08-01T13:08:08;1.60;;;1.50;;
9844;SDS011;4961;50.782;6.080;2022-08-01T13:10:38;1.57;;;1.47;;
9844;SDS011;4961;50.782;6.080;2022-08-01T13:13:09;1.87;;;1.40;;
9844;SDS011;4961;50.782;6.080;2022-08-01T13:16:02;1.83;;;1.80;;
9844;SDS011;4961;50.782;6.080;2022-08-01T13:18:34;1.50;;;1.40;;
9844;SDS011;4961;50.782;6.080;2022-08-01T13:21:07;2.40;;;1.13;;
9844;SDS011;4961;50.782;6.080;2022-08-01T13:23:37;1.10;;;1.10;;
9844;SDS011;4961;50.782;6.080;2022-08-01T13:26:37;0.90;;;0.90;;
9844;SDS011;4961;50.782;6.080;2022-08-01T13:29:12;1.13;;;1.00;;
9844;SDS011;4961;50.782;6.080;2022-08-01T13:31:41;0.70;;;0.70;;
9844;SDS011;4961;50.782;6.080;2022-08-01T13:34:11;1.33;;;0.80;;
9844;SDS011;4961;50.782;6.080;2022-08-01T13:36:41;0.70;;;0.70;;
9844;SDS011;4961;50.782;6.080;2022-08-01T13:39:15;2.40;;;0.97;;
9844;SDS011;4961;50.782;6.080;2022-08-01T13:42:01;2.57;;;0.70;;
9844;SDS011;4961;50.782;6.080;2022-08-01T13:44:31;1.13;;;1.13;;
9844;SDS011;4961;50.782;6.080;2022-08-01T13:47:00;1.77;;;0.80;;
9844;SDS011;4961;50.782;6.080;2022-08-01T13:49:40;1.50;;;1.00;;
9844;SDS011;4961;50.782;6.080;2022-08-01T13:52:09;1.67;;;1.10;;
9844;SDS011;4961;50.782;6.080;2022-08-01T13:54:37;1.00;;;1.00;;
9844;SDS011;4961;50.782;6.080;2022-08-01T13:57:07;1.00;;;1.00;;
9844;SDS011;4961;50.782;6.080;2022-08-01T13:59:37;1.13;;;1.00;;
9844;SDS011;4961;50.782;6.080;2022-08-01T14:02:05;1.83;;;1.20;;
9844;SDS011;4961;50.782;6.080;2022-08-01T14:04:34;2.37;;;0.90;;
9844;SDS011;4961;50.782;6.080;2022-08-01T14:07:03;0.90;;;0.90;;
9844;SDS011;4961;50.782;6.080;2022-08-01T14:09:39;2.07;;;1.10;;
9844;SDS011;4961;50.782;6.080;2022-08-01T14:12:28;1.10;;;1.00;;
9844;SDS011;4961;50.782;6.080;2022-08-01T14:15:00;0.77;;;0.77;;
9844;SDS011;4961;50.782;6.080;2022-08-01T14:17:28;1.50;;;0.90;;
9844;SDS011;4961;50.782;6.080;2022-08-01T14:19:56;2.80;;;1.03;;
9844;SDS011;4961;50.782;6.080;2022-08-01T14:22:25;0.90;;;0.90;;
9844;SDS011;4961;50.782;6.080;2022-08-01T14:24:54;3.13;;;2.33;;
9844;SDS011;4961;50.782;6.080;2022-08-01T14:27:28;1.73;;;0.90;;
9844;SDS011;4961;50.782;6.080;2022-08-01T14:29:57;1.00;;;1.00;;
9844;SDS011;4961;50.782;6.080;2022-08-01T14:32:31;0.70;;;0.70;;
9844;SDS011;4961;50.782;6.080;2022-08-01T14:34:59;2.17;;;0.70;;
9844;SDS011;4961;50.782;6.080;2022-08-01T14:37:28;0.73;;;0.73;;
9844;SDS011;4961;50.782;6.080;2022-08-01T14:40:04;0.70;;;0.70;;
9844;SDS011;4961;50.782;6.080;2022-08-01T14:42:35;1.57;;;0.60;;
9844;SDS011;4961;50.782;6.080;2022-08-01T14:45:05;0.80;;;0.70;;
9844;SDS011;4961;50.782;6.080;2022-08-01T14:47:37;1.90;;;0.70;;
9844;SDS011;4961;50.782;6.080;2022-08-01T14:50:07;0.80;;;0.77;;
9844;SDS011;4961;50.782;6.080;2022-08-01T14:52:37;2.10;;;0.60;;
9844;SDS011;4961;50.782;6.080;2022-08-01T14:55:07;2.33;;;0.80;;
9844;SDS011;4961;50.782;6.080;2022-08-01T14:57:37;0.80;;;0.80;;
9844;SDS011;4961;50.782;6.080;2022-08-01T15:00:07;0.80;;;0.80;;
9844;SDS011;4961;50.782;6.080;2022-08-01T15:02:39;1.40;;;0.80;;
9844;SDS011;4961;50.782;6.080;2022-08-01T15:05:08;2.10;;;0.70;;
9844;SDS011;4961;50.782;6.080;2022-08-01T15:07:37;0.93;;;0.80;;
9844;SDS011;4961;50.782;6.080;2022-08-01T15:10:17;1.37;;;1.10;;
9844;SDS011;4961;50.782;6.080;2022-08-01T15:12:46;2.63;;;1.00;;
9844;SDS011;4961;50.782;6.080;2022-08-01T15:15:16;0.87;;;0.87;;
9844;SDS011;4961;50.782;6.080;2022-08-01T15:17:47;0.87;;;0.80;;
9844;SDS011;4961;50.782;6.080;2022-08-01T15:20:15;0.70;;;0.70;;
9844;SDS011;4961;50.782;6.080;2022-08-01T15:22:43;0.90;;;0.90;;
9844;SDS011;4961;50.782;6.080;2022-08-01T15:25:11;1.33;;;0.80;;
9844;SDS011;4961;50.782;6.080;2022-08-01T15:27:40;3.10;;;0.80;;
9844;SDS011;4961;50.782;6.080;2022-08-01T15:30:08;2.93;;;0.87;;
9844;SDS011;4961;50.782;6.080;2022-08-01T15:32:37;1.03;;;1.00;;
9844;SDS011;4961;50.782;6.080;2022-08-01T15:35:07;1.13;;;0.90;;
9844;SDS011;4961;50.782;6.080;2022-08-01T15:37:37;2.27;;;0.80;;
9844;SDS011;4961;50.782;6.080;2022-08-01T15:40:09;4.13;;;0.93;;
9844;SDS011;4961;50.782;6.080;2022-08-01T15:42:38;0.93;;;0.70;;
9844;SDS011;4961;50.782;6.080;2022-08-01T15:45:06;0.80;;;0.80;;
9844;SDS011;4961;50.782;6.080;2022-08-01T15:47:55;0.80;;;0.80;;
9844;SDS011;4961;50.782;6.080;2022-08-01T15:50:26;0.87;;;0.80;;
9844;SDS011;4961;50.782;6.080;2022-08-01T15:52:54;1.80;;;0.90;;
9844;SDS011;4961;50.782;6.080;2022-08-01T15:55:23;1.70;;;0.83;;
9844;SDS011;4961;50.782;6.080;2022-08-01T15:57:51;1.23;;;0.73;;
9844;SDS011;4961;50.782;6.080;2022-08-01T16:00:20;1.67;;;1.30;;
9844;SDS011;4961;50.782;6.080;2022-08-01T16:02:48;0.70;;;0.70;;
9844;SDS011;4961;50.782;6.080;2022-08-01T16:05:17;1.87;;;0.63;;
9844;SDS011;4961;50.782;6.080;2022-08-01T16:07:47;0.73;;;0.73;;